Sagar Kanya — VTJR — position and weather

sailwx.info

Track history (hours):
 
Tides and Currents Weather Stations Pressure Air Temp Water Temp Dewpoint Dewpoint Depression Visibility Wind Speed Wind Dir Waves Ship Positions

Oceanographic research ship Sagar Kanya (India)

Detailed information on ship capabilities available from University of Delaware's Ocean Information Center.

Last reported at 2020-Jan-17 03:08 UTC. Time now 2020-Jan-18 14:51 UTC.
Position N 14°36' E 072°42'.

Type: Other ship. MMSI: 419320000.

Wind at 21 knots

Barometer 1015.2 mb
Air temperature 24.9 ° C

Date/timePositionNaut miles runAvg speedWind from/ knotsBaromVisibWave heightAir tempDewpointWater temp
2020-Jan-17 03:08N 14°36' E 072°42'25 8.3 1015.2 24.9
2020-Jan-17 00:08N 14°54' E 073°00'26 8.7 010 / 211013.2 24.8
2020-Jan-16 21:08N 15°06' E 073°24'29 8.4 010 / 231013.1 24.9
2020-Jan-16 17:38N 15°24' E 073°48'0 0.0 360 / 271014.0 24.0
2020-Jan-16 15:08N 15°24' E 073°48'0 0.0 340 / 121013.6 25.3
2020-Jan-16 11:38N 15°24' E 073°48'0 0.0 320 / 101011.3 26.8
2020-Jan-16 09:08N 15°24' E 073°48'0 0.0 320 / 101012.0 27.0
2020-Jan-16 06:08N 15°24' E 073°48'0 0.0 020 / 81015.4 26.3
2020-Jan-16 03:08N 15°24' E 073°48'0 0.0 040 / 81015.6 22.3
2020-Jan-15 21:08N 15°24' E 073°48'0 0.0 010 / 121013.1 23.4
2020-Jan-15 18:08N 15°24' E 073°48'0 0.0 360 / 81013.8 24.7
2020-Jan-15 15:08N 15°24' E 073°48'0 0.0 350 / 61013.4 25.8
2020-Jan-15 12:08N 15°24' E 073°48'0 0.0 320 / 101011.2 26.9
2020-Jan-15 09:08N 15°24' E 073°48'0 0.0 310 / 101011.1 27.6
2020-Jan-15 05:38N 15°24' E 073°48'0 0.0 350 / 61014.4 26.1
2020-Jan-15 03:08N 15°24' E 073°48'0 0.0 060 / 21014.1 24.2
2020-Jan-14 21:08N 15°24' E 073°48'0 0.0 050 / 41011.7 24.5
2020-Jan-14 18:08N 15°24' E 073°48'0 0.0 010 / 81012.6 25.8
2020-Jan-14 14:38N 15°24' E 073°48'0 0.0 350 / 121012.1 26.9
2020-Jan-14 12:08N 15°24' E 073°48'0 0.0 330 / 141010.3 27.4
2020-Jan-14 09:08N 15°24' E 073°48'0 0.0 320 / 121010.2 27.7
2020-Jan-14 03:08N 15°24' E 073°48'0 0.0 090 / 21014.1 24.1
2020-Jan-14 00:08N 15°24' E 073°48'0 0.0 090 / 21012.1 24.0
2020-Jan-13 21:08N 15°24' E 073°48'0 0.0 020 / 61011.9 24.8
2020-Jan-13 18:08N 15°24' E 073°48'0 0.0 1013.1 26.3
2020-Jan-13 15:08N 15°24' E 073°48'0 0.0 350 / 101012.5 27.1
2020-Jan-13 09:08N 15°24' E 073°48'0 0.0 310 / 81010.6 28.6
2020-Jan-13 06:08N 15°24' E 073°48'0 0.0 310 / 41014.0 27.8
2020-Jan-13 03:08N 15°24' E 073°48'0 0.0 110 / 21014.5 24.4
2020-Jan-13 00:08N 15°24' E 073°48'0 0.0 130 1012.6 24.0
2020-Jan-12 18:08N 15°24' E 073°48'0 0.0 090 1014.3 25.9
2020-Jan-12 15:08N 15°24' E 073°48'0 0.0 330 / 61014.1 27.8
2020-Jan-12 12:08N 15°24' E 073°48'0 0.0 300 / 101012.0 28.1
2020-Jan-12 08:38N 15°24' E 073°48'0 0.0 290 / 81012.5 28.7
2020-Jan-12 03:08N 15°24' E 073°48'0 0.0 110 / 41015.8 25.9
2020-Jan-12 00:08N 15°24' E 073°48'0 0.0 160 1013.1 23.8
2020-Jan-11 21:08N 15°24' E 073°48'0 0.0 090 / 21013.1 24.8
2020-Jan-11 18:08N 15°24' E 073°48'0 0.0 090 1014.3 26.6
2020-Jan-11 15:08N 15°24' E 073°48'0 0.0 060 / 21014.3 27.6
2020-Jan-11 12:08N 15°24' E 073°48'0 0.0 300 / 21012.3 29.0
2020-Jan-11 08:38N 15°24' E 073°48'0 0.0 250 / 61013.0 29.9
2020-Jan-11 03:08N 15°24' E 073°48'0 0.0 120 / 41015.6 25.3
2020-Jan-11 00:08N 15°24' E 073°48'0 0.0 130 / 21013.2 24.4
2020-Jan-10 18:08N 15°24' E 073°48'0 0.0 100 / 21014.3 26.5
2020-Jan-10 15:08N 15°24' E 073°48'0 0.0 080 1013.5 27.6
2020-Jan-10 12:08N 15°24' E 073°48'0 0.0 300 / 61011.4 28.1
2020-Jan-10 09:08N 15°24' E 073°48'0 0.0 250 / 61011.2 29.6
2020-Jan-10 06:08N 15°24' E 073°48'0 0.0 030 / 41014.0 27.7
2020-Jan-10 03:08N 15°24' E 073°48'0 0.0 110 / 41013.9 24.0
2020-Jan-10 00:08N 15°24' E 073°48'0 0.0 240 1011.6 23.3
2020-Jan-09 21:08N 15°24' E 073°48'0 0.0 060 / 61012.0 24.0
2020-Jan-09 18:08N 15°24' E 073°48'0 0.0 020 / 101013.6 25.8
2020-Jan-09 14:38N 15°24' E 073°48'0 0.0 330 / 81013.4 27.3
2020-Jan-09 12:08N 15°24' E 073°48'0 0.0 310 / 61012.2 27.9
2020-Jan-09 09:08N 15°24' E 073°48'0 0.0 280 / 61012.3 28.5
2020-Jan-09 06:08N 15°24' E 073°48'0 0.0 060 / 21015.1 29.0
2020-Jan-09 00:08N 15°24' E 073°48'0 0.0 040 / 81012.9 24.5
2020-Jan-08 21:08N 15°24' E 073°48'0 0.0 040 / 41012.7 24.8
2020-Jan-08 18:08N 15°24' E 073°48'0 0.0 1013.8 26.5
2020-Jan-08 15:08N 15°24' E 073°48'0 0.0 350 / 141013.8 27.6
2020-Jan-08 12:08N 15°24' E 073°48'0 0.0 330 / 141011.9 28.1
2020-Jan-08 09:08N 15°24' E 073°48'0 0.0 300 / 41012.0 29.2
2020-Jan-08 06:08N 15°24' E 073°48'0 0.0 350 / 41014.6 27.6
2020-Jan-08 03:08N 15°24' E 073°48'0 0.0 080 / 41015.1 25.0
2020-Jan-07 23:38N 15°24' E 073°48'0 0.0 060 / 41012.1 24.9
2020-Jan-07 21:08N 15°24' E 073°48'0 0.0 080 / 41012.7 25.8
2020-Jan-07 18:08N 15°24' E 073°48'0 0.0 020 / 81013.8 26.8
2020-Jan-07 12:08N 15°24' E 073°48'0 0.0 310 / 41011.4 29.1
2020-Jan-07 09:09N 15°24' E 073°48'0 0.0 260 / 81011.7 29.7
2020-Jan-07 06:09N 15°24' E 073°48'0 0.0 020 / 21014.7 29.0
2020-Jan-07 03:09N 15°24' E 073°48'   110 / 61015.2 26.0
Track history (hours):
 
Tides and Currents Weather Stations Pressure Air Temp Water Temp Dewpoint Dewpoint Depression Visibility Wind Speed Wind Dir Waves Ship Positions

Oceanographic research ship Sagar Kanya (India)

Detailed information on ship capabilities available from University of Delaware's Ocean Information Center.

Last reported at 2020-Jan-17 03:08 UTC. Time now 2020-Jan-18 14:51 UTC.
Position N 14°36' E 072°42'.

Type: Other ship. MMSI: 419320000.

Wind at 21 knots

Barometer 1015.2 mb
Air temperature 24.9 ° C

Date/timePositionNaut miles runAvg speedWind from/ knotsBaromVisibWave heightAir tempDewpointWater temp
2020-Jan-17 03:08N 14°36' E 072°42'25 8.3 1015.2 24.9
2020-Jan-17 00:08N 14°54' E 073°00'26 8.7 010 / 211013.2 24.8
2020-Jan-16 21:08N 15°06' E 073°24'29 8.4 010 / 231013.1 24.9
2020-Jan-16 17:38N 15°24' E 073°48'0 0.0 360 / 271014.0 24.0
2020-Jan-16 15:08N 15°24' E 073°48'0 0.0 340 / 121013.6 25.3
2020-Jan-16 11:38N 15°24' E 073°48'0 0.0 320 / 101011.3 26.8
2020-Jan-16 09:08N 15°24' E 073°48'0 0.0 320 / 101012.0 27.0
2020-Jan-16 06:08N 15°24' E 073°48'0 0.0 020 / 81015.4 26.3
2020-Jan-16 03:08N 15°24' E 073°48'0 0.0 040 / 81015.6 22.3
2020-Jan-15 21:08N 15°24' E 073°48'0 0.0 010 / 121013.1 23.4
2020-Jan-15 18:08N 15°24' E 073°48'0 0.0 360 / 81013.8 24.7
2020-Jan-15 15:08N 15°24' E 073°48'0 0.0 350 / 61013.4 25.8
2020-Jan-15 12:08N 15°24' E 073°48'0 0.0 320 / 101011.2 26.9
2020-Jan-15 09:08N 15°24' E 073°48'0 0.0 310 / 101011.1 27.6
2020-Jan-15 05:38N 15°24' E 073°48'0 0.0 350 / 61014.4 26.1
2020-Jan-15 03:08N 15°24' E 073°48'0 0.0 060 / 21014.1 24.2
2020-Jan-14 21:08N 15°24' E 073°48'0 0.0 050 / 41011.7 24.5
2020-Jan-14 18:08N 15°24' E 073°48'0 0.0 010 / 81012.6 25.8
2020-Jan-14 14:38N 15°24' E 073°48'0 0.0 350 / 121012.1 26.9
2020-Jan-14 12:08N 15°24' E 073°48'0 0.0 330 / 141010.3 27.4
2020-Jan-14 09:08N 15°24' E 073°48'0 0.0 320 / 121010.2 27.7
2020-Jan-14 03:08N 15°24' E 073°48'0 0.0 090 / 21014.1 24.1
2020-Jan-14 00:08N 15°24' E 073°48'0 0.0 090 / 21012.1 24.0
2020-Jan-13 21:08N 15°24' E 073°48'0 0.0 020 / 61011.9 24.8
2020-Jan-13 18:08N 15°24' E 073°48'0 0.0 1013.1 26.3
2020-Jan-13 15:08N 15°24' E 073°48'0 0.0 350 / 101012.5 27.1
2020-Jan-13 09:08N 15°24' E 073°48'0 0.0 310 / 81010.6 28.6
2020-Jan-13 06:08N 15°24' E 073°48'0 0.0 310 / 41014.0 27.8
2020-Jan-13 03:08N 15°24' E 073°48'0 0.0 110 / 21014.5 24.4
2020-Jan-13 00:08N 15°24' E 073°48'0 0.0 130 1012.6 24.0
2020-Jan-12 18:08N 15°24' E 073°48'0 0.0 090 1014.3 25.9
2020-Jan-12 15:08N 15°24' E 073°48'0 0.0 330 / 61014.1 27.8
2020-Jan-12 12:08N 15°24' E 073°48'0 0.0 300 / 101012.0 28.1
2020-Jan-12 08:38N 15°24' E 073°48'0 0.0 290 / 81012.5 28.7
2020-Jan-12 03:08N 15°24' E 073°48'0 0.0 110 / 41015.8 25.9
2020-Jan-12 00:08N 15°24' E 073°48'0 0.0 160 1013.1 23.8
2020-Jan-11 21:08N 15°24' E 073°48'0 0.0 090 / 21013.1 24.8
2020-Jan-11 18:08N 15°24' E 073°48'0 0.0 090 1014.3 26.6
2020-Jan-11 15:08N 15°24' E 073°48'0 0.0 060 / 21014.3 27.6
2020-Jan-11 12:08N 15°24' E 073°48'0 0.0 300 / 21012.3 29.0
2020-Jan-11 08:38N 15°24' E 073°48'0 0.0 250 / 61013.0 29.9
2020-Jan-11 03:08N 15°24' E 073°48'0 0.0 120 / 41015.6 25.3
2020-Jan-11 00:08N 15°24' E 073°48'0 0.0 130 / 21013.2 24.4
2020-Jan-10 18:08N 15°24' E 073°48'0 0.0 100 / 21014.3 26.5
2020-Jan-10 15:08N 15°24' E 073°48'0 0.0 080 1013.5 27.6
2020-Jan-10 12:08N 15°24' E 073°48'0 0.0 300 / 61011.4 28.1
2020-Jan-10 09:08N 15°24' E 073°48'0 0.0 250 / 61011.2 29.6
2020-Jan-10 06:08N 15°24' E 073°48'0 0.0 030 / 41014.0 27.7
2020-Jan-10 03:08N 15°24' E 073°48'0 0.0 110 / 41013.9 24.0
2020-Jan-10 00:08N 15°24' E 073°48'0 0.0 240 1011.6 23.3
2020-Jan-09 21:08N 15°24' E 073°48'0 0.0 060 / 61012.0 24.0
2020-Jan-09 18:08N 15°24' E 073°48'0 0.0 020 / 101013.6 25.8
2020-Jan-09 14:38N 15°24' E 073°48'0 0.0 330 / 81013.4 27.3
2020-Jan-09 12:08N 15°24' E 073°48'0 0.0 310 / 61012.2 27.9
2020-Jan-09 09:08N 15°24' E 073°48'0 0.0 280 / 61012.3 28.5
2020-Jan-09 06:08N 15°24' E 073°48'0 0.0 060 / 21015.1 29.0
2020-Jan-09 00:08N 15°24' E 073°48'0 0.0 040 / 81012.9 24.5
2020-Jan-08 21:08N 15°24' E 073°48'0 0.0 040 / 41012.7 24.8
2020-Jan-08 18:08N 15°24' E 073°48'0 0.0 1013.8 26.5
2020-Jan-08 15:08N 15°24' E 073°48'0 0.0 350 / 141013.8 27.6
2020-Jan-08 12:08N 15°24' E 073°48'0 0.0 330 / 141011.9 28.1
2020-Jan-08 09:08N 15°24' E 073°48'0 0.0 300 / 41012.0 29.2
2020-Jan-08 06:08N 15°24' E 073°48'0 0.0 350 / 41014.6 27.6
2020-Jan-08 03:08N 15°24' E 073°48'0 0.0 080 / 41015.1 25.0
2020-Jan-07 23:38N 15°24' E 073°48'0 0.0 060 / 41012.1 24.9
2020-Jan-07 21:08N 15°24' E 073°48'0 0.0 080 / 41012.7 25.8
2020-Jan-07 18:08N 15°24' E 073°48'0 0.0 020 / 81013.8 26.8
2020-Jan-07 12:08N 15°24' E 073°48'0 0.0 310 / 41011.4 29.1
2020-Jan-07 09:09N 15°24' E 073°48'0 0.0 260 / 81011.7 29.7
2020-Jan-07 06:09N 15°24' E 073°48'0 0.0 020 / 21014.7 29.0
2020-Jan-07 03:09N 15°24' E 073°48'   110 / 61015.2 26.0

Dump ship's entire track history